createdAt,value
2018-07-24T00:01:30.143Z,22.60
2018-07-24T00:04:03.619Z,22.60
2018-07-24T00:06:33.974Z,22.60
2018-07-24T00:09:05.457Z,22.60
2018-07-24T00:11:35.847Z,22.50
2018-07-24T00:14:06.272Z,22.50
2018-07-24T00:16:42.821Z,22.70
2018-07-24T00:19:13.256Z,22.60
2018-07-24T00:21:43.580Z,22.60
2018-07-24T00:24:13.985Z,22.70
2018-07-24T00:26:45.168Z,22.50
2018-07-24T00:29:15.578Z,22.50
2018-07-24T00:31:45.982Z,22.60
2018-07-24T00:34:17.154Z,22.40
2018-07-24T00:36:47.483Z,22.40
2018-07-24T00:39:18.069Z,22.40
2018-07-24T00:41:49.254Z,22.40
2018-07-24T00:44:19.647Z,22.40
2018-07-24T00:46:49.977Z,22.20
2018-07-24T00:49:21.179Z,22.30
2018-07-24T00:51:51.586Z,22.20
2018-07-24T00:54:21.981Z,22.30
2018-07-24T00:56:53.181Z,22.30
2018-07-24T00:59:23.577Z,22.30
2018-07-24T01:01:53.973Z,22.30
2018-07-24T01:04:24.392Z,22.40
2018-07-24T01:06:55.562Z,22.20
2018-07-24T01:09:25.966Z,22.20
2018-07-24T01:11:57.173Z,21.90
2018-07-24T01:14:34.035Z,21.90
2018-07-24T01:17:08.559Z,22.10
2018-07-24T01:19:38.960Z,22.20
2018-07-24T01:22:09.285Z,22.20
2018-07-24T01:24:39.713Z,22.20
2018-07-24T01:27:10.113Z,22.20
2018-07-24T01:29:40.440Z,22.20
2018-07-24T01:32:11.563Z,22.10
2018-07-24T01:34:41.959Z,22.10
2018-07-24T01:37:14.385Z,22.10
2018-07-24T01:39:45.563Z,22.10
2018-07-24T01:42:15.965Z,22.10
2018-07-24T01:44:47.112Z,22.10
2018-07-24T01:47:18.484Z,21.90
2018-07-24T01:49:48.869Z,21.90
2018-07-24T01:52:19.260Z,22.10
2018-07-24T01:55:10.081Z,22.10
2018-07-24T01:57:40.482Z,22.00
2018-07-24T02:00:10.894Z,21.90
2018-07-24T02:02:41.355Z,21.80
2018-07-24T02:05:12.697Z,21.90
2018-07-24T02:07:45.147Z,21.60
2018-07-24T02:10:15.557Z,21.50
2018-07-24T02:12:46.722Z,21.30
2018-07-24T02:15:17.106Z,21.30
2018-07-24T02:17:47.471Z,21.20
2018-07-24T02:20:17.876Z,21.20
2018-07-24T02:22:49.036Z,21.20
2018-07-24T02:25:19.471Z,21.20
2018-07-24T02:27:49.857Z,21.20
2018-07-24T02:30:20.254Z,21.20
2018-07-24T02:32:51.430Z,21.20
2018-07-24T02:35:21.804Z,21.40
2018-07-24T02:37:52.199Z,21.40
2018-07-24T02:40:23.381Z,21.60
2018-07-24T02:42:53.781Z,21.50
2018-07-24T02:45:24.171Z,21.50
2018-07-24T02:47:54.587Z,21.50
2018-07-24T02:50:25.630Z,21.40
2018-07-24T02:52:56.011Z,21.20
2018-07-24T02:55:27.450Z,21.20
2018-07-24T02:57:58.619Z,21.20
2018-07-24T03:00:28.998Z,21.10
2018-07-24T03:02:59.417Z,21.40
2018-07-24T03:05:29.810Z,21.30
2018-07-24T03:08:06.360Z,21.10
2018-07-24T03:10:36.697Z,21.40
2018-07-24T03:13:07.088Z,21.10
2018-07-24T03:15:38.267Z,20.80
2018-07-24T03:18:08.683Z,20.80
2018-07-24T03:20:39.066Z,20.90
2018-07-24T03:23:09.664Z,20.80
2018-07-24T03:25:42.727Z,20.70
2018-07-24T03:28:13.132Z,20.80
2018-07-24T03:30:44.258Z,20.70
2018-07-24T03:33:14.644Z,20.70
2018-07-24T03:35:46.062Z,20.70
2018-07-24T03:38:16.478Z,20.60
2018-07-24T03:40:47.645Z,20.70
2018-07-24T03:43:18.042Z,20.70
2018-07-24T03:45:48.470Z,20.80
2018-07-24T03:51:07.376Z,20.70
2018-07-24T03:53:38.535Z,20.70
2018-07-24T03:56:08.924Z,20.70
2018-07-24T03:58:40.121Z,20.60
2018-07-24T04:01:10.520Z,20.60
2018-07-24T04:03:40.907Z,20.40
2018-07-24T04:06:11.314Z,20.30
2018-07-24T04:08:41.687Z,20.30
2018-07-24T04:11:12.835Z,20.20
2018-07-24T04:13:43.271Z,20.20
2018-07-24T04:16:13.673Z,20.40
2018-07-24T04:18:44.247Z,20.60
2018-07-24T04:21:14.672Z,20.60
2018-07-24T04:23:45.080Z,20.90
2018-07-24T04:26:15.408Z,20.80
2018-07-24T04:28:45.832Z,20.80
2018-07-24T04:31:16.158Z,20.80
2018-07-24T04:33:46.549Z,20.90
2018-07-24T04:36:16.955Z,21.10
2018-07-24T04:38:47.353Z,21.00
2018-07-24T04:41:17.743Z,20.90
2018-07-24T04:43:48.928Z,20.80
2018-07-24T04:46:19.335Z,20.80
2018-07-24T04:48:49.729Z,20.80
2018-07-24T04:51:20.147Z,21.10
2018-07-24T04:53:50.537Z,21.20
2018-07-24T04:56:20.917Z,21.20
2018-07-24T04:58:51.338Z,20.80
2018-07-24T05:01:21.720Z,20.60
2018-07-24T05:03:52.093Z,20.70
2018-07-24T05:06:22.523Z,21.00
2018-07-24T05:08:52.933Z,21.00
2018-07-24T05:11:23.324Z,21.10
2018-07-24T05:13:53.744Z,21.10
2018-07-24T05:16:24.144Z,20.90
2018-07-24T05:18:55.317Z,21.20
2018-07-24T05:21:25.747Z,21.20
2018-07-24T05:23:56.119Z,21.30
2018-07-24T05:26:26.511Z,21.30
2018-07-24T05:29:02.042Z,21.30
2018-07-24T05:31:32.422Z,21.40
2018-07-24T05:34:02.807Z,21.40
2018-07-24T05:36:34.245Z,21.40
2018-07-24T05:39:04.632Z,21.30
2018-07-24T05:41:35.032Z,21.40
2018-07-24T05:44:05.460Z,21.30
2018-07-24T05:46:35.857Z,21.40
2018-07-24T05:49:06.237Z,21.10
2018-07-24T05:51:36.661Z,21.20
2018-07-24T05:54:07.047Z,21.20
2018-07-24T05:56:42.526Z,20.90
2018-07-24T05:59:12.889Z,21.00
2018-07-24T06:01:43.283Z,20.90
2018-07-24T06:04:13.673Z,21.00
2018-07-24T06:06:46.149Z,21.20
2018-07-24T06:09:18.580Z,21.50
2018-07-24T06:11:49.740Z,21.40
2018-07-24T06:14:20.180Z,21.30
2018-07-24T06:16:50.600Z,21.40
2018-07-24T06:19:21.653Z,21.40
2018-07-24T06:21:52.102Z,21.30
2018-07-24T06:24:23.181Z,21.40
2018-07-24T06:26:53.577Z,21.30
2018-07-24T06:29:24.077Z,21.30
2018-07-24T06:31:56.105Z,21.30
2018-07-24T06:34:26.512Z,21.20
2018-07-24T06:36:56.949Z,21.40
2018-07-24T06:39:27.281Z,21.60
2018-07-24T06:41:57.649Z,21.50
2018-07-24T06:44:28.110Z,21.60
2018-07-24T06:46:58.448Z,21.70
2018-07-24T06:49:28.844Z,21.80
2018-07-24T06:51:59.327Z,22.00
2018-07-24T06:54:29.633Z,22.10
2018-07-24T06:57:00.033Z,22.00
2018-07-24T06:59:31.151Z,22.20
2018-07-24T07:02:02.572Z,22.20
2018-07-24T07:04:32.951Z,22.20
2018-07-24T07:07:04.519Z,22.10
2018-07-24T07:09:34.909Z,22.10
2018-07-24T07:12:05.234Z,22.10
2018-07-24T07:14:36.978Z,22.30
2018-07-24T07:17:07.275Z,22.50
2018-07-24T07:19:37.657Z,22.50
2018-07-24T07:22:15.317Z,22.60
2018-07-24T07:24:45.722Z,22.60
2018-07-24T07:27:16.120Z,22.50
2018-07-24T07:30:06.098Z,22.40
2018-07-24T07:32:36.480Z,22.50
2018-07-24T07:35:07.646Z,22.60
2018-07-24T07:37:38.061Z,22.60
2018-07-24T07:40:08.377Z,22.60
2018-07-24T07:42:39.535Z,23.00
2018-07-24T07:45:10.010Z,23.00
2018-07-24T07:47:40.365Z,23.10
2018-07-24T07:50:11.548Z,23.10
2018-07-24T07:52:42.271Z,23.00
2018-07-24T07:55:12.656Z,23.60
2018-07-24T07:57:42.986Z,23.70
2018-07-24T08:03:01.873Z,23.90
2018-07-24T08:05:33.060Z,23.60
2018-07-24T08:08:04.470Z,23.60
2018-07-24T08:10:35.651Z,23.70
2018-07-24T08:13:06.067Z,23.60
2018-07-24T08:15:36.463Z,23.70
2018-07-24T08:18:06.841Z,23.80
2018-07-24T08:20:39.303Z,23.80
2018-07-24T08:23:09.679Z,23.80
2018-07-24T08:25:40.060Z,23.80
2018-07-24T08:28:10.513Z,23.80
2018-07-24T08:30:41.604Z,24.10
2018-07-24T08:33:12.766Z,24.10
2018-07-24T08:35:43.189Z,24.10
2018-07-24T08:38:15.628Z,24.20
2018-07-24T08:40:46.209Z,24.20
2018-07-24T08:43:16.636Z,24.30
2018-07-24T08:45:47.023Z,24.40
2018-07-24T08:48:17.405Z,24.50
2018-07-24T08:51:06.162Z,24.40
2018-07-24T08:53:38.874Z,24.50
2018-07-24T08:56:08.986Z,24.50
2018-07-24T08:58:41.453Z,24.50
2018-07-24T09:01:11.774Z,24.60
2018-07-24T09:04:04.389Z,24.70
2018-07-24T09:06:35.521Z,25.00
2018-07-24T09:09:05.885Z,24.90
2018-07-24T09:11:55.666Z,25.10
2018-07-24T09:14:28.087Z,24.90
2018-07-24T09:16:59.233Z,24.90
2018-07-24T09:19:29.662Z,24.90
2018-07-24T09:22:00.051Z,25.40
2018-07-24T09:24:30.410Z,25.80
2018-07-24T09:27:01.676Z,26.20
2018-07-24T09:29:32.042Z,26.10
2018-07-24T09:32:02.451Z,26.00
2018-07-24T09:34:32.827Z,26.10
2018-07-24T09:37:03.212Z,26.40
2018-07-24T09:39:33.610Z,26.60
2018-07-24T09:42:04.006Z,26.80
2018-07-24T09:44:34.395Z,26.90
2018-07-24T09:47:04.961Z,26.70
2018-07-24T09:49:35.376Z,27.00
2018-07-24T09:52:05.745Z,27.20
2018-07-24T09:54:37.856Z,27.20
2018-07-24T09:57:06.559Z,27.10
2018-07-24T09:59:36.940Z,27.20
2018-07-24T10:02:07.319Z,27.20
2018-07-24T10:04:37.715Z,27.20
2018-07-24T10:07:15.397Z,27.30
2018-07-24T10:09:46.805Z,27.50
2018-07-24T10:12:18.020Z,27.50
2018-07-24T10:14:48.377Z,27.50
2018-07-24T10:17:19.553Z,27.70
2018-07-24T10:19:49.942Z,27.70
2018-07-24T10:22:20.419Z,27.80
2018-07-24T10:24:50.686Z,27.80
2018-07-24T10:27:21.006Z,27.80
2018-07-24T10:29:51.404Z,27.90
2018-07-24T10:32:28.973Z,27.90
2018-07-24T10:34:59.349Z,27.70
2018-07-24T10:37:29.745Z,27.90
2018-07-24T10:40:00.240Z,28.00
2018-07-24T10:42:33.633Z,27.90
2018-07-24T10:45:04.038Z,28.00
2018-07-24T10:47:34.433Z,28.10
2018-07-24T10:50:04.826Z,28.10
2018-07-24T10:52:35.212Z,28.30
2018-07-24T10:55:05.610Z,28.40
2018-07-24T10:57:56.136Z,28.50
2018-07-24T11:00:26.520Z,28.50
2018-07-24T11:02:56.918Z,28.60
2018-07-24T11:05:28.333Z,28.80
2018-07-24T11:07:58.740Z,28.10
2018-07-24T11:10:48.514Z,27.70
2018-07-24T11:13:20.971Z,28.20
2018-07-24T11:15:51.364Z,28.50
2018-07-24T11:18:22.505Z,28.60
2018-07-24T11:20:52.906Z,28.20
2018-07-24T11:23:23.285Z,27.90
2018-07-24T11:25:53.684Z,27.70
2018-07-24T11:28:24.095Z,27.50
2018-07-24T11:30:58.563Z,27.50
2018-07-24T11:33:29.788Z,27.30
2018-07-24T11:36:00.323Z,27.30
2018-07-24T11:38:30.511Z,27.50
2018-07-24T11:41:01.918Z,27.90
2018-07-24T11:43:33.077Z,28.40
2018-07-24T11:46:03.458Z,28.30
2018-07-24T11:48:33.782Z,28.50
2018-07-24T11:51:04.186Z,28.70
2018-07-24T11:53:34.507Z,28.80
2018-07-24T11:56:04.887Z,28.80
2018-07-24T11:58:35.308Z,28.70
2018-07-24T12:01:06.725Z,28.30
2018-07-24T12:03:37.152Z,28.60
2018-07-24T12:06:07.567Z,28.60
2018-07-24T12:08:41.015Z,28.70
2018-07-24T12:11:11.406Z,28.90
2018-07-24T12:16:30.101Z,28.80
2018-07-24T12:19:01.279Z,28.80
2018-07-24T12:21:31.650Z,28.80
2018-07-24T12:24:02.075Z,28.90
2018-07-24T12:26:34.509Z,28.80
2018-07-24T12:29:04.889Z,28.50
2018-07-24T12:31:35.453Z,28.50
2018-07-24T12:34:05.873Z,28.40
2018-07-24T12:36:36.247Z,28.20
2018-07-24T12:39:06.567Z,28.10
2018-07-24T12:41:58.000Z,28.00
2018-07-24T12:44:28.379Z,28.10
2018-07-24T12:46:58.692Z,28.20
2018-07-24T12:49:29.107Z,28.10
2018-07-24T12:51:59.508Z,28.10
2018-07-24T12:54:30.085Z,28.10
2018-07-24T12:57:00.504Z,28.20
2018-07-24T12:59:30.822Z,28.70
2018-07-24T13:02:01.972Z,28.80
2018-07-24T13:04:32.390Z,28.80
2018-07-24T13:07:03.569Z,28.70
2018-07-24T13:09:33.932Z,28.70
2018-07-24T13:12:04.528Z,28.40
2018-07-24T13:14:34.919Z,28.50
2018-07-24T13:17:05.296Z,28.30
2018-07-24T13:19:35.735Z,28.30
2018-07-24T13:22:11.215Z,28.20
2018-07-24T13:24:42.498Z,28.30
2018-07-24T13:27:12.746Z,28.30
2018-07-24T13:29:48.201Z,28.30
2018-07-24T13:32:18.616Z,28.50
2018-07-24T13:34:49.013Z,28.60
2018-07-24T13:37:20.062Z,28.70
2018-07-24T13:39:52.482Z,28.50
2018-07-24T13:42:22.888Z,28.50
2018-07-24T13:44:55.382Z,28.50
2018-07-24T13:47:25.739Z,28.50
2018-07-24T13:49:56.126Z,28.40
2018-07-24T13:52:26.557Z,28.50
2018-07-24T13:54:56.926Z,28.70
2018-07-24T13:57:27.315Z,28.80
2018-07-24T13:59:57.719Z,28.70
2018-07-24T14:02:29.128Z,28.70
2018-07-24T14:04:59.508Z,28.70
2018-07-24T14:07:29.922Z,28.70
2018-07-24T14:10:04.404Z,28.70
2018-07-24T14:12:34.725Z,28.70
2018-07-24T14:15:05.841Z,28.60
2018-07-24T14:17:36.229Z,28.60
2018-07-24T14:20:08.660Z,28.60
2018-07-24T14:22:40.866Z,28.40
2018-07-24T14:25:12.214Z,28.40
2018-07-24T14:27:42.605Z,28.40
2018-07-24T14:30:13.775Z,28.40
2018-07-24T14:32:44.099Z,28.40
2018-07-24T14:35:14.497Z,28.50
2018-07-24T14:37:44.907Z,28.80
2018-07-24T14:40:15.350Z,29.20
2018-07-24T14:42:45.680Z,29.10
2018-07-24T14:45:16.859Z,29.10
2018-07-24T14:47:47.249Z,29.10
2018-07-24T14:50:18.409Z,29.00
2018-07-24T14:52:48.857Z,29.00
2018-07-24T14:55:19.973Z,29.30
2018-07-24T14:57:51.143Z,29.20
2018-07-24T15:00:21.546Z,29.20
2018-07-24T15:02:52.701Z,29.20
2018-07-24T15:05:23.017Z,29.20
2018-07-24T15:07:53.423Z,29.10
2018-07-24T15:10:23.993Z,29.30
2018-07-24T15:12:54.406Z,29.20
2018-07-24T15:15:25.600Z,29.20
2018-07-24T15:17:57.009Z,29.20
2018-07-24T15:20:27.323Z,29.20
2018-07-24T15:22:58.508Z,29.00
2018-07-24T15:25:30.867Z,29.10
2018-07-24T15:28:03.292Z,29.00
2018-07-24T15:30:33.708Z,28.90
2018-07-24T15:33:04.087Z,28.90
2018-07-24T15:35:35.494Z,29.20
2018-07-24T15:38:05.924Z,29.30
2018-07-24T15:40:36.304Z,29.20
2018-07-24T15:43:06.701Z,29.20
2018-07-24T15:45:37.101Z,29.20
2018-07-24T15:48:07.477Z,29.30
2018-07-24T15:50:39.917Z,29.20
2018-07-24T15:53:11.283Z,29.20
2018-07-24T15:55:41.686Z,29.20
2018-07-24T15:58:12.066Z,29.20
2018-07-24T16:01:02.312Z,29.30
2018-07-24T16:06:21.969Z,29.40
2018-07-24T16:08:52.279Z,29.40
2018-07-24T16:11:22.643Z,29.30
2018-07-24T16:13:53.057Z,29.40
2018-07-24T16:16:25.486Z,29.10
2018-07-24T16:18:55.875Z,29.00
2018-07-24T16:21:26.282Z,29.10
2018-07-24T16:23:56.660Z,29.00
2018-07-24T16:26:27.044Z,28.80
2018-07-24T16:28:57.443Z,28.70
2018-07-24T16:31:27.952Z,28.70
2018-07-24T16:33:58.336Z,28.70
2018-07-24T16:36:28.754Z,28.60
2018-07-24T16:38:59.140Z,28.60
2018-07-24T16:41:29.546Z,28.70
2018-07-24T16:44:00.031Z,28.70
2018-07-24T16:46:30.359Z,28.70
2018-07-24T16:49:00.751Z,28.70
2018-07-24T16:51:34.220Z,28.70
2018-07-24T16:54:04.620Z,28.80
2018-07-24T16:56:37.788Z,28.70
2018-07-24T16:59:08.200Z,28.70
2018-07-24T17:01:45.739Z,28.70
2018-07-24T17:04:16.916Z,28.60
2018-07-24T17:06:47.296Z,28.50
2018-07-24T17:09:17.684Z,28.40
2018-07-24T17:11:49.049Z,28.40
2018-07-24T17:14:23.517Z,28.40
2018-07-24T17:16:53.907Z,28.30
2018-07-24T17:19:24.310Z,28.30
2018-07-24T17:21:54.705Z,28.30
2018-07-24T17:24:25.867Z,28.20
2018-07-24T17:26:56.287Z,28.30
2018-07-24T17:29:26.601Z,28.20
2018-07-24T17:31:57.080Z,28.20
2018-07-24T17:34:27.423Z,28.20
2018-07-24T17:36:57.801Z,28.10
2018-07-24T17:39:28.416Z,28.10
2018-07-24T17:41:59.613Z,28.20
2018-07-24T17:44:36.130Z,28.20
2018-07-24T17:47:07.276Z,28.10
2018-07-24T17:49:38.389Z,28.20
2018-07-24T17:52:08.775Z,28.20
2018-07-24T17:54:41.224Z,28.10
2018-07-24T17:57:12.417Z,28.10
2018-07-24T17:59:42.839Z,28.00
2018-07-24T18:02:13.217Z,28.00
2018-07-24T18:04:43.624Z,28.10
2018-07-24T18:07:16.664Z,28.10
2018-07-24T18:09:49.124Z,28.10
2018-07-24T18:12:19.501Z,28.00
2018-07-24T18:14:49.978Z,27.90
2018-07-24T18:17:25.622Z,27.90
2018-07-24T18:22:46.903Z,27.90
2018-07-24T18:25:19.944Z,27.90
2018-07-24T18:27:50.343Z,27.90
2018-07-24T18:30:20.749Z,27.80
2018-07-24T18:32:53.846Z,27.80
2018-07-24T18:35:24.231Z,27.70
2018-07-24T18:37:54.837Z,27.70
2018-07-24T18:40:25.985Z,27.60
2018-07-24T18:42:59.004Z,27.60
2018-07-24T18:45:29.406Z,27.50
2018-07-24T18:47:59.803Z,27.50
2018-07-24T18:50:30.170Z,27.40
2018-07-24T18:53:00.524Z,27.40
2018-07-24T18:55:31.937Z,27.40
2018-07-24T18:58:02.260Z,27.40
2018-07-24T19:00:33.370Z,27.40
2018-07-24T19:03:04.618Z,27.40
2018-07-24T19:05:35.006Z,27.30
2018-07-24T19:08:24.499Z,27.20
2018-07-24T19:10:54.894Z,27.10
2018-07-24T19:13:25.273Z,27.10
2018-07-24T19:15:55.701Z,27.10
2018-07-24T19:18:26.020Z,27.00
2018-07-24T19:20:56.417Z,27.00
2018-07-24T19:23:26.755Z,27.00
2018-07-24T19:25:57.149Z,26.90
2018-07-24T19:28:27.466Z,26.90
2018-07-24T19:30:58.917Z,26.90
2018-07-24T19:33:29.301Z,26.80
2018-07-24T19:35:59.684Z,26.70
2018-07-24T19:38:32.982Z,26.70
2018-07-24T19:41:05.937Z,26.60
2018-07-24T19:43:36.318Z,26.40
2018-07-24T19:46:06.728Z,26.30
2018-07-24T19:48:43.272Z,26.30
2018-07-24T19:51:13.687Z,26.30
2018-07-24T19:53:44.094Z,26.30
2018-07-24T19:56:14.479Z,26.20
2018-07-24T19:59:04.292Z,26.20
2018-07-24T20:01:34.673Z,26.30
2018-07-24T20:04:05.047Z,26.20
2018-07-24T20:06:35.463Z,26.20
2018-07-24T20:09:05.836Z,26.20
2018-07-24T20:11:36.218Z,26.10
2018-07-24T20:14:07.662Z,26.10
2018-07-24T20:16:38.113Z,26.00
2018-07-24T20:19:11.508Z,26.00
2018-07-24T20:21:42.874Z,26.00
2018-07-24T20:24:14.018Z,25.80
2018-07-24T20:26:45.165Z,25.70
2018-07-24T20:29:16.273Z,25.80
2018-07-24T20:31:46.676Z,25.80
2018-07-24T20:34:42.190Z,25.70
2018-07-24T20:37:13.505Z,25.60
2018-07-24T20:39:44.660Z,25.60
2018-07-24T20:42:15.068Z,25.50
2018-07-24T20:44:46.209Z,25.60
2018-07-24T20:47:16.607Z,25.60
2018-07-24T20:49:49.700Z,25.50
2018-07-24T20:52:20.099Z,25.40
2018-07-24T20:54:50.479Z,25.40
2018-07-24T20:57:20.887Z,25.40
2018-07-24T20:59:52.315Z,25.40
2018-07-24T21:02:22.693Z,25.50
2018-07-24T21:04:53.880Z,25.30
2018-07-24T21:07:24.253Z,25.30
2018-07-24T21:09:54.652Z,25.30
2018-07-24T21:12:27.699Z,25.30
2018-07-24T21:14:58.096Z,25.20
2018-07-24T21:17:29.255Z,25.30
2018-07-24T21:19:59.654Z,25.30
2018-07-24T21:22:30.051Z,25.30
2018-07-24T21:25:03.513Z,25.20
2018-07-24T21:27:33.919Z,25.20
2018-07-24T21:30:05.080Z,25.20
2018-07-24T21:32:35.461Z,25.20
2018-07-24T21:35:05.871Z,25.20
2018-07-24T21:37:36.267Z,25.20
2018-07-24T21:40:06.657Z,25.00
2018-07-24T21:42:37.214Z,25.00
2018-07-24T21:45:09.516Z,24.90
2018-07-24T21:47:39.913Z,24.90
2018-07-24T21:50:11.356Z,25.00
2018-07-24T21:52:41.738Z,24.90
2018-07-24T21:55:12.054Z,24.90
2018-07-24T21:58:02.864Z,24.90
2018-07-24T22:00:33.256Z,24.90
2018-07-24T22:03:03.646Z,25.00
2018-07-24T22:05:34.055Z,25.00
2018-07-24T22:08:04.442Z,25.00
2018-07-24T22:10:34.823Z,24.90
2018-07-24T22:13:05.247Z,24.90
2018-07-24T22:15:35.632Z,24.80
2018-07-24T22:18:06.089Z,24.80
2018-07-24T22:20:36.462Z,24.70
2018-07-24T22:23:08.575Z,25.00
2018-07-24T22:25:38.964Z,25.00
2018-07-24T22:28:09.305Z,24.90
2018-07-24T22:30:40.727Z,25.00
2018-07-24T22:33:11.883Z,24.90
2018-07-24T22:35:42.300Z,24.90
2018-07-24T22:41:07.085Z,24.90
2018-07-24T22:43:37.477Z,24.80
2018-07-24T22:46:07.858Z,24.90
2018-07-24T22:48:39.042Z,24.80
2018-07-24T22:51:10.452Z,24.70
2018-07-24T22:53:41.781Z,24.70
2018-07-24T22:56:12.175Z,24.70
2018-07-24T22:58:44.598Z,24.80
2018-07-24T23:01:15.747Z,24.70
2018-07-24T23:03:47.170Z,24.70
2018-07-24T23:06:17.570Z,24.70
2018-07-24T23:08:47.959Z,24.70
2018-07-24T23:11:19.072Z,24.50
2018-07-24T23:13:49.468Z,24.50
2018-07-24T23:16:39.255Z,24.50
2018-07-24T23:19:29.008Z,24.60
2018-07-24T23:21:59.456Z,24.50
2018-07-24T23:24:30.617Z,24.50
2018-07-24T23:27:01.000Z,24.50
2018-07-24T23:29:31.440Z,24.40
2018-07-24T23:32:01.822Z,24.30
2018-07-24T23:34:32.218Z,24.30
2018-07-24T23:37:04.690Z,24.30
2018-07-24T23:39:55.211Z,24.20
2018-07-24T23:42:25.874Z,24.20
2018-07-24T23:44:56.960Z,24.30
2018-07-24T23:47:49.545Z,24.20
2018-07-24T23:50:19.927Z,24.20
2018-07-24T23:52:51.322Z,24.30
2018-07-24T23:55:21.739Z,24.20
2018-07-24T23:57:52.135Z,24.30
